sensor_id;sensor_type;location;lat;lon;timestamp;pressure;altitude;pressure_sealevel;temperature;humidity
52953;BME280;38815;55.932;-3.232;2022-09-13T00:01:31;100360.31;;;19.07;61.42
52953;BME280;38815;55.932;-3.232;2022-09-13T00:03:57;100343.81;;;18.98;61.27
52953;BME280;38815;55.932;-3.232;2022-09-13T00:06:22;100385.34;;;19.24;61.06
52953;BME280;38815;55.932;-3.232;2022-09-13T00:08:48;100343.25;;;19.00;61.07
52953;BME280;38815;55.932;-3.232;2022-09-13T00:13:40;100378.19;;;19.23;61.32
52953;BME280;38815;55.932;-3.232;2022-09-13T00:16:10;100371.00;;;19.22;61.40
52953;BME280;38815;55.932;-3.232;2022-09-13T00:18:36;100351.06;;;19.07;62.25
52953;BME280;38815;55.932;-3.232;2022-09-13T00:21:07;100341.66;;;18.91;61.43
52953;BME280;38815;55.932;-3.232;2022-09-13T00:23:33;100401.97;;;19.27;61.28
52953;BME280;38815;55.932;-3.232;2022-09-13T00:26:06;100409.69;;;19.27;61.24
52953;BME280;38815;55.932;-3.232;2022-09-13T00:28:32;100394.09;;;19.13;61.63
52953;BME280;38815;55.932;-3.232;2022-09-13T00:31:02;100379.88;;;19.05;61.39
52953;BME280;38815;55.932;-3.232;2022-09-13T00:33:28;100415.16;;;19.25;61.36
52953;BME280;38815;55.932;-3.232;2022-09-13T00:35:54;100383.47;;;19.06;61.16
52953;BME280;38815;55.932;-3.232;2022-09-13T00:38:19;100400.81;;;19.23;61.15
52953;BME280;38815;55.932;-3.232;2022-09-13T00:40:44;100410.56;;;19.22;61.35
52953;BME280;38815;55.932;-3.232;2022-09-13T00:43:17;100396.16;;;19.12;61.33
52953;BME280;38815;55.932;-3.232;2022-09-13T00:45:43;100401.91;;;19.07;60.86
52953;BME280;38815;55.932;-3.232;2022-09-13T00:48:16;100406.28;;;19.08;61.19
52953;BME280;38815;55.932;-3.232;2022-09-13T00:50:50;100428.84;;;19.21;61.05
52953;BME280;38815;55.932;-3.232;2022-09-13T00:53:30;100422.44;;;19.20;61.14
52953;BME280;38815;55.932;-3.232;2022-09-13T00:56:02;100392.47;;;19.04;61.03
52953;BME280;38815;55.932;-3.232;2022-09-13T00:58:46;100394.00;;;19.05;60.75
52953;BME280;38815;55.932;-3.232;2022-09-13T01:01:14;100392.66;;;19.06;61.25
52953;BME280;38815;55.932;-3.232;2022-09-13T01:03:41;100404.50;;;19.18;60.62
52953;BME280;38815;55.932;-3.232;2022-09-13T01:06:10;100414.28;;;19.17;60.77
52953;BME280;38815;55.932;-3.232;2022-09-13T01:08:39;100387.91;;;19.01;60.91
52953;BME280;38815;55.932;-3.232;2022-09-13T01:11:10;100415.03;;;19.17;61.17
52953;BME280;38815;55.932;-3.232;2022-09-13T01:13:40;100405.19;;;19.11;60.92
52953;BME280;38815;55.932;-3.232;2022-09-13T01:16:06;100408.63;;;19.17;60.72
52953;BME280;38815;55.932;-3.232;2022-09-13T01:18:31;100373.38;;;18.97;60.81
52953;BME280;38815;55.932;-3.232;2022-09-13T01:43:34;100376.47;;;19.07;60.09
52953;BME280;38815;55.932;-3.232;2022-09-13T01:46:08;100352.59;;;18.95;60.18
52953;BME280;38815;55.932;-3.232;2022-09-13T01:48:50;100374.66;;;19.09;60.81
52953;BME280;38815;55.932;-3.232;2022-09-13T01:57:30;100389.50;;;19.10;60.20
52953;BME280;38815;55.932;-3.232;2022-09-13T02:00:06;100392.34;;;19.10;60.39
52953;BME280;38815;55.932;-3.232;2022-09-13T02:05:09;100364.78;;;18.90;60.27
52953;BME280;38815;55.932;-3.232;2022-09-13T02:07:40;100374.44;;;18.94;60.29
52953;BME280;38815;55.932;-3.232;2022-09-13T02:10:14;100392.47;;;19.04;60.09
52953;BME280;38815;55.932;-3.232;2022-09-13T02:12:42;100373.28;;;18.90;60.25
52953;BME280;38815;55.932;-3.232;2022-09-13T02:15:15;100394.31;;;19.02;59.57
52953;BME280;38815;55.932;-3.232;2022-09-13T02:17:45;100385.22;;;18.96;59.96
52953;BME280;38815;55.932;-3.232;2022-09-13T02:20:26;100402.47;;;19.05;59.97
52953;BME280;38815;55.932;-3.232;2022-09-13T02:22:55;100413.78;;;19.05;60.10
52953;BME280;38815;55.932;-3.232;2022-09-13T02:25:24;100391.19;;;18.92;60.13
52953;BME280;38815;55.932;-3.232;2022-09-13T02:27:53;100413.78;;;19.05;59.99
52953;BME280;38815;55.932;-3.232;2022-09-13T02:30:26;100380.00;;;18.87;59.90
52953;BME280;38815;55.932;-3.232;2022-09-13T02:32:59;100399.75;;;19.00;60.27
52953;BME280;38815;55.932;-3.232;2022-09-13T02:35:30;100394.31;;;19.02;60.13
52953;BME280;38815;55.932;-3.232;2022-09-13T02:38:09;100398.03;;;18.97;59.80
52953;BME280;38815;55.932;-3.232;2022-09-13T02:40:42;100383.59;;;18.87;59.75
52953;BME280;38815;55.932;-3.232;2022-09-13T02:43:17;100394.97;;;18.95;59.98
52953;BME280;38815;55.932;-3.232;2022-09-13T02:46:16;100408.78;;;18.98;59.73
52953;BME280;38815;55.932;-3.232;2022-09-13T02:54:08;100425.19;;;19.00;59.75
52953;BME280;38815;55.932;-3.232;2022-09-13T02:59:15;100418.25;;;18.88;59.74
52953;BME280;38815;55.932;-3.232;2022-09-13T03:01:45;100422.13;;;18.98;59.97
52953;BME280;38815;55.932;-3.232;2022-09-13T03:04:13;100417.25;;;18.98;60.24
52953;BME280;38815;55.932;-3.232;2022-09-13T03:06:39;100417.25;;;18.98;59.78
52953;BME280;38815;55.932;-3.232;2022-09-13T03:09:05;100397.91;;;18.89;60.00
52953;BME280;38815;55.932;-3.232;2022-09-13T03:16:45;100423.22;;;18.95;59.78
52953;BME280;38815;55.932;-3.232;2022-09-13T03:24:48;100409.66;;;18.93;59.86
52953;BME280;38815;55.932;-3.232;2022-09-13T03:30:22;100402.94;;;18.83;59.63
52953;BME280;38815;55.932;-3.232;2022-09-13T03:33:14;100412.59;;;18.88;59.73
52953;BME280;38815;55.932;-3.232;2022-09-13T03:35:53;100411.16;;;18.94;59.78
52953;BME280;38815;55.932;-3.232;2022-09-13T03:38:31;100400.88;;;18.84;59.89
52953;BME280;38815;55.932;-3.232;2022-09-13T03:41:04;100415.88;;;18.92;59.98
52953;BME280;38815;55.932;-3.232;2022-09-13T03:43:54;100397.63;;;18.80;59.51
52953;BME280;38815;55.932;-3.232;2022-09-13T03:46:24;100411.09;;;18.87;59.53
52953;BME280;38815;55.932;-3.232;2022-09-13T03:48:52;100431.28;;;18.91;59.72
52953;BME280;38815;55.932;-3.232;2022-09-13T03:51:18;100431.81;;;18.89;59.62
52953;BME280;38815;55.932;-3.232;2022-09-13T03:53:51;100416.06;;;18.81;59.69
52953;BME280;38815;55.932;-3.232;2022-09-13T03:56:20;100426.16;;;18.89;59.62
52953;BME280;38815;55.932;-3.232;2022-09-13T03:58:47;100423.16;;;18.87;59.60
52953;BME280;38815;55.932;-3.232;2022-09-13T04:01:13;100401.31;;;18.74;59.69
52953;BME280;38815;55.932;-3.232;2022-09-13T04:03:39;100387.63;;;18.65;59.73
52953;BME280;38815;55.932;-3.232;2022-09-13T04:06:05;100405.44;;;18.87;59.93
52953;BME280;38815;55.932;-3.232;2022-09-13T04:08:31;100411.09;;;18.87;59.56
52953;BME280;38815;55.932;-3.232;2022-09-13T04:10:57;100415.97;;;18.86;59.52
52953;BME280;38815;55.932;-3.232;2022-09-13T04:13:22;100418.56;;;18.84;59.61
52953;BME280;38815;55.932;-3.232;2022-09-13T04:15:48;100418.78;;;18.86;59.77
52953;BME280;38815;55.932;-3.232;2022-09-13T04:18:14;100412.28;;;18.78;59.74
52953;BME280;38815;55.932;-3.232;2022-09-13T04:20:40;100411.31;;;18.75;59.50
52953;BME280;38815;55.932;-3.232;2022-09-13T04:23:06;100405.56;;;18.68;59.25
52953;BME280;38815;55.932;-3.232;2022-09-13T04:25:31;100415.78;;;18.71;59.52
52953;BME280;38815;55.932;-3.232;2022-09-13T04:27:57;100428.38;;;18.83;59.56
52953;BME280;38815;55.932;-3.232;2022-09-13T04:30:24;100426.97;;;18.77;59.47
52953;BME280;38815;55.932;-3.232;2022-09-13T04:32:50;100421.84;;;18.75;59.39
52953;BME280;38815;55.932;-3.232;2022-09-13T04:35:15;100406.31;;;18.68;59.33
52953;BME280;38815;55.932;-3.232;2022-09-13T04:37:42;100423.03;;;18.80;59.57
52953;BME280;38815;55.932;-3.232;2022-09-13T04:40:08;100416.31;;;18.69;59.35
52953;BME280;38815;55.932;-3.232;2022-09-13T04:42:34;100412.28;;;18.65;59.21
52953;BME280;38815;55.932;-3.232;2022-09-13T04:45:00;100435.44;;;18.77;59.10
52953;BME280;38815;55.932;-3.232;2022-09-13T04:47:26;100431.06;;;18.75;59.47
52953;BME280;38815;55.932;-3.232;2022-09-13T04:49:51;100427.69;;;18.77;59.22
52953;BME280;38815;55.932;-3.232;2022-09-13T04:52:16;100420.44;;;18.68;58.93
52953;BME280;38815;55.932;-3.232;2022-09-13T04:54:42;100432.63;;;18.77;59.50
52953;BME280;38815;55.932;-3.232;2022-09-13T04:57:08;100430.34;;;18.75;59.17
52953;BME280;38815;55.932;-3.232;2022-09-13T04:59:33;100423.06;;;18.66;59.11
52953;BME280;38815;55.932;-3.232;2022-09-13T05:01:59;100422.28;;;18.66;59.37
52953;BME280;38815;55.932;-3.232;2022-09-13T05:04:24;100401.44;;;18.56;59.42
52953;BME280;38815;55.932;-3.232;2022-09-13T05:06:49;100425.53;;;18.70;59.06
52953;BME280;38815;55.932;-3.232;2022-09-13T05:09:15;100427.06;;;18.71;59.58
52953;BME280;38815;55.932;-3.232;2022-09-13T05:11:41;100435.75;;;18.73;58.90
52953;BME280;38815;55.932;-3.232;2022-09-13T05:14:10;100437.03;;;18.72;59.35
52953;BME280;38815;55.932;-3.232;2022-09-13T05:16:36;100431.00;;;18.68;59.43
52953;BME280;38815;55.932;-3.232;2022-09-13T05:19:02;100421.75;;;18.54;58.94
52953;BME280;38815;55.932;-3.232;2022-09-13T05:21:28;100434.78;;;18.70;59.26
52953;BME280;38815;55.932;-3.232;2022-09-13T05:23:55;100435.53;;;18.71;59.42
52953;BME280;38815;55.932;-3.232;2022-09-13T05:26:22;100432.50;;;18.69;59.35
52953;BME280;38815;55.932;-3.232;2022-09-13T05:28:48;100427.94;;;18.66;59.30
52953;BME280;38815;55.932;-3.232;2022-09-13T05:31:19;100434.22;;;18.72;59.23
52953;BME280;38815;55.932;-3.232;2022-09-13T05:33:46;100446.63;;;18.69;58.92
52953;BME280;38815;55.932;-3.232;2022-09-13T05:36:12;100443.34;;;18.65;59.20
52953;BME280;38815;55.932;-3.232;2022-09-13T05:38:38;100428.16;;;18.55;58.89
52953;BME280;38815;55.932;-3.232;2022-09-13T05:41:04;100449.22;;;18.67;58.98
52953;BME280;38815;55.932;-3.232;2022-09-13T05:43:34;100447.16;;;18.67;58.79
52953;BME280;38815;55.932;-3.232;2022-09-13T05:48:27;100448.47;;;18.66;58.93
52953;BME280;38815;55.932;-3.232;2022-09-13T05:50:52;100411.75;;;18.40;58.56
52953;BME280;38815;55.932;-3.232;2022-09-13T05:53:18;100443.47;;;18.59;59.30
52953;BME280;38815;55.932;-3.232;2022-09-13T05:55:43;100440.22;;;18.55;59.00
52953;BME280;38815;55.932;-3.232;2022-09-13T05:58:08;100455.97;;;18.64;58.87
52953;BME280;38815;55.932;-3.232;2022-09-13T06:00:34;100439.03;;;18.51;58.96
52953;BME280;38815;55.932;-3.232;2022-09-13T06:02:59;100448.81;;;18.63;58.75
52953;BME280;38815;55.932;-3.232;2022-09-13T06:05:25;100429.56;;;18.48;58.94
52953;BME280;38815;55.932;-3.232;2022-09-13T06:07:50;100433.56;;;18.53;59.02
52953;BME280;38815;55.932;-3.232;2022-09-13T06:10:15;100454.44;;;18.63;59.09
52953;BME280;38815;55.932;-3.232;2022-09-13T06:12:41;100435.19;;;18.48;58.75
52953;BME280;38815;55.932;-3.232;2022-09-13T06:15:07;100442.47;;;18.57;59.06
52953;BME280;38815;55.932;-3.232;2022-09-13T06:17:33;100451.63;;;18.63;59.07
52953;BME280;38815;55.932;-3.232;2022-09-13T06:19:58;100453.69;;;18.62;59.51
52953;BME280;38815;55.932;-3.232;2022-09-13T06:22:24;100449.97;;;18.67;59.74
52953;BME280;38815;55.932;-3.232;2022-09-13T06:24:49;100449.44;;;18.69;59.63
52953;BME280;38815;55.932;-3.232;2022-09-13T06:27:14;100453.25;;;18.71;59.63
52953;BME280;38815;55.932;-3.232;2022-09-13T06:29:40;100454.31;;;18.68;59.40
52953;BME280;38815;55.932;-3.232;2022-09-13T06:32:05;100437.81;;;18.59;59.54
52953;BME280;38815;55.932;-3.232;2022-09-13T06:34:31;100445.97;;;18.63;60.24
52953;BME280;38815;55.932;-3.232;2022-09-13T06:36:56;100446.72;;;18.63;60.39
52953;BME280;38815;55.932;-3.232;2022-09-13T06:39:22;100453.13;;;18.77;60.02
52953;BME280;38815;55.932;-3.232;2022-09-13T06:41:47;100440.41;;;18.70;59.88
52953;BME280;38815;55.932;-3.232;2022-09-13T06:44:12;100441.50;;;18.67;60.08
52953;BME280;38815;55.932;-3.232;2022-09-13T06:46:38;100448.25;;;18.64;59.53
52953;BME280;38815;55.932;-3.232;2022-09-13T06:49:06;100443.25;;;18.57;59.43
52953;BME280;38815;55.932;-3.232;2022-09-13T06:51:33;100467.06;;;18.75;59.29
52953;BME280;38815;55.932;-3.232;2022-09-13T06:53:59;100462.91;;;18.76;60.24
52953;BME280;38815;55.932;-3.232;2022-09-13T06:56:28;100451.84;;;18.78;60.39
52953;BME280;38815;55.932;-3.232;2022-09-13T06:58:56;100473.22;;;18.87;60.11
52953;BME280;38815;55.932;-3.232;2022-09-13T07:01:28;100477.00;;;18.89;60.15
52953;BME280;38815;55.932;-3.232;2022-09-13T07:03:58;100473.66;;;18.91;60.30
52953;BME280;38815;55.932;-3.232;2022-09-13T07:06:26;100478.56;;;18.90;60.51
52953;BME280;38815;55.932;-3.232;2022-09-13T07:08:53;100446.72;;;18.77;59.87
52953;BME280;38815;55.932;-3.232;2022-09-13T07:11:21;100454.41;;;18.89;60.78
52953;BME280;38815;55.932;-3.232;2022-09-13T07:13:51;100445.63;;;18.80;61.04
52953;BME280;38815;55.932;-3.232;2022-09-13T07:16:18;100462.56;;;18.93;61.11
52953;BME280;38815;55.932;-3.232;2022-09-13T07:18:44;100457.78;;;18.88;60.91
52953;BME280;38815;55.932;-3.232;2022-09-13T07:21:10;100466.94;;;18.94;60.75
52953;BME280;38815;55.932;-3.232;2022-09-13T07:23:38;100467.16;;;18.96;60.96
52953;BME280;38815;55.932;-3.232;2022-09-13T07:26:05;100474.31;;;18.97;61.09
52953;BME280;38815;55.932;-3.232;2022-09-13T07:28:35;100474.84;;;18.95;61.01
52953;BME280;38815;55.932;-3.232;2022-09-13T07:31:22;100465.16;;;18.91;61.26
52953;BME280;38815;55.932;-3.232;2022-09-13T07:33:55;100474.94;;;19.03;61.43
52953;BME280;38815;55.932;-3.232;2022-09-13T07:36:21;100463.56;;;18.95;62.00
52953;BME280;38815;55.932;-3.232;2022-09-13T07:38:47;100443.44;;;18.86;62.47
52953;BME280;38815;55.932;-3.232;2022-09-13T07:41:15;100481.38;;;19.03;61.73
52953;BME280;38815;55.932;-3.232;2022-09-13T07:43:40;100484.94;;;19.04;62.04
52953;BME280;38815;55.932;-3.232;2022-09-13T07:46:08;100491.06;;;19.08;63.39
52953;BME280;38815;55.932;-3.232;2022-09-13T07:48:35;100492.00;;;19.10;63.34
52953;BME280;38815;55.932;-3.232;2022-09-13T07:51:06;100497.66;;;19.10;63.24
52953;BME280;38815;55.932;-3.232;2022-09-13T07:53:33;100495.59;;;19.11;62.61
52953;BME280;38815;55.932;-3.232;2022-09-13T07:56:04;100482.00;;;18.96;62.64
52953;BME280;38815;55.932;-3.232;2022-09-13T07:58:29;100491.88;;;19.03;62.35
52953;BME280;38815;55.932;-3.232;2022-09-13T08:01:07;100487.78;;;19.04;62.21
52953;BME280;38815;55.932;-3.232;2022-09-13T08:03:34;100474.75;;;18.88;61.58
52953;BME280;38815;55.932;-3.232;2022-09-13T08:06:00;100477.69;;;18.95;62.04
52953;BME280;38815;55.932;-3.232;2022-09-13T08:08:27;100468.75;;;18.91;62.24
52953;BME280;38815;55.932;-3.232;2022-09-13T08:10:52;100484.19;;;19.03;62.14
52953;BME280;38815;55.932;-3.232;2022-09-13T08:13:18;100493.22;;;19.02;61.90
52953;BME280;38815;55.932;-3.232;2022-09-13T08:15:44;100490.16;;;19.00;61.63
52953;BME280;38815;55.932;-3.232;2022-09-13T08:18:09;100495.25;;;19.01;61.76
52953;BME280;38815;55.932;-3.232;2022-09-13T08:20:38;100493.53;;;18.98;61.32
52953;BME280;38815;55.932;-3.232;2022-09-13T08:23:05;100490.94;;;19.00;61.47
52953;BME280;38815;55.932;-3.232;2022-09-13T08:25:32;100422.50;;;18.55;60.99
52953;BME280;38815;55.932;-3.232;2022-09-13T08:28:14;100491.47;;;18.99;61.07
52953;BME280;38815;55.932;-3.232;2022-09-13T08:30:40;100478.88;;;19.00;61.12
52953;BME280;38815;55.932;-3.232;2022-09-13T08:33:08;100461.16;;;18.86;61.01
52953;BME280;38815;55.932;-3.232;2022-09-13T08:35:34;100471.69;;;18.99;61.03
52953;BME280;38815;55.932;-3.232;2022-09-13T08:38:00;100473.75;;;18.98;60.83
52953;BME280;38815;55.932;-3.232;2022-09-13T08:40:29;100472.25;;;18.97;61.20
52953;BME280;38815;55.932;-3.232;2022-09-13T08:45:27;100464.22;;;18.88;60.48
52953;BME280;38815;55.932;-3.232;2022-09-13T08:47:57;100470.31;;;18.92;60.66
52953;BME280;38815;55.932;-3.232;2022-09-13T08:50:34;100465.09;;;18.83;60.86
52953;BME280;38815;55.932;-3.232;2022-09-13T08:55:46;100484.28;;;18.98;60.96
52953;BME280;38815;55.932;-3.232;2022-09-13T09:01:01;100449.44;;;18.82;60.85
52953;BME280;38815;55.932;-3.232;2022-09-13T09:03:46;100468.88;;;18.99;60.71
52953;BME280;38815;55.932;-3.232;2022-09-13T09:06:16;100446.81;;;18.84;60.75
52953;BME280;38815;55.932;-3.232;2022-09-13T09:08:49;100439.66;;;18.83;60.74
52953;BME280;38815;55.932;-3.232;2022-09-13T09:11:38;100460.41;;;18.99;60.86
52953;BME280;38815;55.932;-3.232;2022-09-13T09:16:53;100455.31;;;18.97;61.18
52953;BME280;38815;55.932;-3.232;2022-09-13T09:19:36;100453.88;;;18.91;60.46
52953;BME280;38815;55.932;-3.232;2022-09-13T09:22:10;100441.16;;;18.84;60.73
52953;BME280;38815;55.932;-3.232;2022-09-13T09:24:38;100453.03;;;18.96;60.33
52953;BME280;38815;55.932;-3.232;2022-09-13T09:27:15;100443.44;;;18.86;60.73
52953;BME280;38815;55.932;-3.232;2022-09-13T09:29:41;100438.66;;;18.81;60.19
52953;BME280;38815;55.932;-3.232;2022-09-13T09:32:36;100460.94;;;18.97;60.20
52953;BME280;38815;55.932;-3.232;2022-09-13T09:37:34;100452.81;;;18.94;60.53
52953;BME280;38815;55.932;-3.232;2022-09-13T09:40:04;100434.78;;;18.84;61.56
52953;BME280;38815;55.932;-3.232;2022-09-13T09:45:27;100441.59;;;18.88;61.16
52953;BME280;38815;55.932;-3.232;2022-09-13T09:47:55;100439.13;;;18.85;60.91
52953;BME280;38815;55.932;-3.232;2022-09-13T09:50:27;100458.69;;;18.96;61.23
52953;BME280;38815;55.932;-3.232;2022-09-13T09:58:10;100463.22;;;18.99;61.45
52953;BME280;38815;55.932;-3.232;2022-09-13T10:00:58;100459.63;;;18.98;61.02
52953;BME280;38815;55.932;-3.232;2022-09-13T10:03:25;100459.63;;;18.98;60.82
52953;BME280;38815;55.932;-3.232;2022-09-13T10:06:13;100442.25;;;18.81;60.83
52953;BME280;38815;55.932;-3.232;2022-09-13T10:08:57;100450.41;;;18.85;60.94
52953;BME280;38815;55.932;-3.232;2022-09-13T10:11:37;100455.19;;;18.90;60.70
52953;BME280;38815;55.932;-3.232;2022-09-13T10:14:03;100427.28;;;18.73;60.49
52953;BME280;38815;55.932;-3.232;2022-09-13T10:16:29;100461.50;;;18.96;60.96
52953;BME280;38815;55.932;-3.232;2022-09-13T10:19:22;100453.03;;;18.96;60.64
52953;BME280;38815;55.932;-3.232;2022-09-13T10:22:02;100430.19;;;18.81;60.61
52953;BME280;38815;55.932;-3.232;2022-09-13T10:24:30;100440.84;;;18.88;60.33
52953;BME280;38815;55.932;-3.232;2022-09-13T10:26:57;100450.19;;;18.96;60.73
52953;BME280;38815;55.932;-3.232;2022-09-13T10:29:25;100448.13;;;18.96;60.33
52953;BME280;38815;55.932;-3.232;2022-09-13T10:31:52;100445.28;;;18.96;60.72
52953;BME280;38815;55.932;-3.232;2022-09-13T10:34:32;100445.84;;;18.95;60.79
52953;BME280;38815;55.932;-3.232;2022-09-13T10:37:03;100418.28;;;18.74;60.72
52953;BME280;38815;55.932;-3.232;2022-09-13T10:39:32;100416.31;;;18.69;60.28
52953;BME280;38815;55.932;-3.232;2022-09-13T10:42:03;100426.19;;;18.76;60.46
52953;BME280;38815;55.932;-3.232;2022-09-13T10:47:22;100393.94;;;18.58;60.06
52953;BME280;38815;55.932;-3.232;2022-09-13T10:49:51;100446.16;;;18.91;60.68
52953;BME280;38815;55.932;-3.232;2022-09-13T10:54:54;100451.81;;;18.91;60.50
52953;BME280;38815;55.932;-3.232;2022-09-13T10:57:31;100453.53;;;18.94;60.67
52953;BME280;38815;55.932;-3.232;2022-09-13T10:59:59;100464.72;;;19.00;61.39
52953;BME280;38815;55.932;-3.232;2022-09-13T11:05:56;100440.09;;;18.87;61.28
52953;BME280;38815;55.932;-3.232;2022-09-13T11:08:41;100457.03;;;19.00;62.35
52953;BME280;38815;55.932;-3.232;2022-09-13T11:13:47;100454.09;;;19.06;62.19
52953;BME280;38815;55.932;-3.232;2022-09-13T11:19:31;100447.78;;;19.13;61.47
52953;BME280;38815;55.932;-3.232;2022-09-13T11:28:02;100446.69;;;19.16;61.59
52953;BME280;38815;55.932;-3.232;2022-09-13T11:39:29;100419.94;;;19.17;60.61
52953;BME280;38815;55.932;-3.232;2022-09-13T11:42:08;100415.03;;;19.17;61.02
52953;BME280;38815;55.932;-3.232;2022-09-13T11:55:53;100417.66;;;19.15;61.94
52953;BME280;38815;55.932;-3.232;2022-09-13T11:58:30;100414.81;;;19.15;61.73
52953;BME280;38815;55.932;-3.232;2022-09-13T12:01:01;100410.06;;;19.10;61.28
52953;BME280;38815;55.932;-3.232;2022-09-13T12:06:25;100402.13;;;19.09;60.85
52953;BME280;38815;55.932;-3.232;2022-09-13T12:09:01;100376.53;;;18.94;60.52
52953;BME280;38815;55.932;-3.232;2022-09-13T12:11:36;100384.88;;;18.99;60.58
52953;BME280;38815;55.932;-3.232;2022-09-13T12:14:06;100405.91;;;19.11;60.71
52953;BME280;38815;55.932;-3.232;2022-09-13T12:16:47;100391.38;;;19.07;60.76
52953;BME280;38815;55.932;-3.232;2022-09-13T12:19:23;100379.03;;;18.97;60.70
52953;BME280;38815;55.932;-3.232;2022-09-13T12:21:55;100403.63;;;19.10;60.35
52953;BME280;38815;55.932;-3.232;2022-09-13T12:26:59;100394.44;;;19.09;60.18
52953;BME280;38815;55.932;-3.232;2022-09-13T12:29:46;100394.44;;;19.09;60.10
52953;BME280;38815;55.932;-3.232;2022-09-13T12:32:16;100392.88;;;19.08;60.33
52953;BME280;38815;55.932;-3.232;2022-09-13T12:35:30;100387.03;;;19.06;60.34
52953;BME280;38815;55.932;-3.232;2022-09-13T12:43:20;100368.28;;;18.96;60.47
52953;BME280;38815;55.932;-3.232;2022-09-13T12:46:02;100395.72;;;19.08;59.96
52953;BME280;38815;55.932;-3.232;2022-09-13T12:49:07;100385.72;;;19.07;59.90
52953;BME280;38815;55.932;-3.232;2022-09-13T12:54:30;100388.56;;;19.07;60.18
52953;BME280;38815;55.932;-3.232;2022-09-13T13:02:50;100349.16;;;18.89;59.77
52953;BME280;38815;55.932;-3.232;2022-09-13T13:05:23;100375.19;;;19.08;59.46
52953;BME280;38815;55.932;-3.232;2022-09-13T13:07:53;100373.09;;;19.08;59.92
52953;BME280;38815;55.932;-3.232;2022-09-13T13:10:27;100372.38;;;19.08;59.94
52953;BME280;38815;55.932;-3.232;2022-09-13T13:12:55;100370.06;;;19.06;59.46
52953;BME280;38815;55.932;-3.232;2022-09-13T13:17:50;100357.59;;;19.02;59.89
52953;BME280;38815;55.932;-3.232;2022-09-13T13:20:39;100362.34;;;19.07;59.72
52953;BME280;38815;55.932;-3.232;2022-09-13T13:39:11;100355.94;;;19.06;59.54
52953;BME280;38815;55.932;-3.232;2022-09-13T13:41:42;100362.56;;;19.09;59.94
52953;BME280;38815;55.932;-3.232;2022-09-13T13:46:40;100346.50;;;19.04;59.48
52953;BME280;38815;55.932;-3.232;2022-09-13T13:57:36;100327.63;;;18.99;59.87
52953;BME280;38815;55.932;-3.232;2022-09-13T14:05:48;100349.00;;;19.07;59.60
52953;BME280;38815;55.932;-3.232;2022-09-13T14:19:33;100324.53;;;19.10;59.44
52953;BME280;38815;55.932;-3.232;2022-09-13T14:24:42;100314.53;;;19.09;59.69
52953;BME280;38815;55.932;-3.232;2022-09-13T14:29:52;100310.66;;;18.99;60.45
52953;BME280;38815;55.932;-3.232;2022-09-13T14:32:23;100316.38;;;19.06;60.69
52953;BME280;38815;55.932;-3.232;2022-09-13T14:37:27;100304.06;;;19.17;60.77
52953;BME280;38815;55.932;-3.232;2022-09-13T14:42:44;100315.25;;;19.22;61.07
52953;BME280;38815;55.932;-3.232;2022-09-13T14:45:25;100306.22;;;19.24;60.84
52953;BME280;38815;55.932;-3.232;2022-09-13T14:48:01;100296.13;;;19.15;60.97
52953;BME280;38815;55.932;-3.232;2022-09-13T14:51:02;100307.53;;;19.23;60.34
52953;BME280;38815;55.932;-3.232;2022-09-13T14:53:31;100280.41;;;19.07;60.41
52953;BME280;38815;55.932;-3.232;2022-09-13T14:56:23;100121.47;;;17.98;60.05
52953;BME280;38815;55.932;-3.232;2022-09-13T14:58:53;100304.06;;;19.17;60.50
52953;BME280;38815;55.932;-3.232;2022-09-13T15:01:26;100290.63;;;19.10;60.55
52953;BME280;38815;55.932;-3.232;2022-09-13T15:03:55;100313.75;;;19.21;60.46
52953;BME280;38815;55.932;-3.232;2022-09-13T15:06:27;100274.63;;;18.92;60.66
52953;BME280;38815;55.932;-3.232;2022-09-13T15:11:58;100302.69;;;19.10;60.57
52953;BME280;38815;55.932;-3.232;2022-09-13T15:14:34;100313.19;;;19.23;60.93
52953;BME280;38815;55.932;-3.232;2022-09-13T15:17:09;100309.81;;;19.24;60.56
52953;BME280;38815;55.932;-3.232;2022-09-13T15:20:01;100309.25;;;19.26;60.77
52953;BME280;38815;55.932;-3.232;2022-09-13T15:22:29;100311.31;;;19.25;60.58
52953;BME280;38815;55.932;-3.232;2022-09-13T15:24:57;100314.69;;;19.24;60.94
52953;BME280;38815;55.932;-3.232;2022-09-13T15:27:42;100312.28;;;19.28;60.67
52953;BME280;38815;55.932;-3.232;2022-09-13T15:32:46;100312.28;;;19.28;60.61
52953;BME280;38815;55.932;-3.232;2022-09-13T15:35:23;100290.69;;;19.17;60.56
52953;BME280;38815;55.932;-3.232;2022-09-13T15:38:53;100283.53;;;19.16;60.46
52953;BME280;38815;55.932;-3.232;2022-09-13T15:40:56;100313.28;;;19.30;60.35
52953;BME280;38815;55.932;-3.232;2022-09-13T15:43:22;100299.91;;;19.31;60.43
52953;BME280;38815;55.932;-3.232;2022-09-13T15:45:48;100302.19;;;19.32;60.19
52953;BME280;38815;55.932;-3.232;2022-09-13T15:48:33;100300.13;;;19.33;60.38
52953;BME280;38815;55.932;-3.232;2022-09-13T15:51:12;100281.53;;;19.24;60.29
52953;BME280;38815;55.932;-3.232;2022-09-13T15:53:40;100293.34;;;19.36;60.16
52953;BME280;38815;55.932;-3.232;2022-09-13T15:56:08;100301.84;;;19.36;60.02
52953;BME280;38815;55.932;-3.232;2022-09-13T15:58:36;100285.97;;;19.33;59.82
52953;BME280;38815;55.932;-3.232;2022-09-13T16:01:02;100267.06;;;19.28;59.63
52953;BME280;38815;55.932;-3.232;2022-09-13T16:03:28;100288.13;;;19.40;59.85
52953;BME280;38815;55.932;-3.232;2022-09-13T16:05:53;100284.75;;;19.41;59.79
52953;BME280;38815;55.932;-3.232;2022-09-13T16:08:19;100281.91;;;19.41;59.54
52953;BME280;38815;55.932;-3.232;2022-09-13T16:10:45;100270.81;;;19.43;59.65
52953;BME280;38815;55.932;-3.232;2022-09-13T16:13:11;100253.34;;;19.32;59.49
52953;BME280;38815;55.932;-3.232;2022-09-13T16:15:36;100265.50;;;19.40;59.42
52953;BME280;38815;55.932;-3.232;2022-09-13T16:18:02;100274.03;;;19.47;59.25
52953;BME280;38815;55.932;-3.232;2022-09-13T16:20:27;100279.50;;;19.45;59.40